sensor_id;sensor_type;location;lat;lon;timestamp;temperature;humidity
20712;DHT22;10517;50.742;4.224;2023-05-07T00:02:21;16.30;99.90
20712;DHT22;10517;50.742;4.224;2023-05-07T00:04:48;16.30;99.90
20712;DHT22;10517;50.742;4.224;2023-05-07T00:07:14;16.20;99.90
20712;DHT22;10517;50.742;4.224;2023-05-07T00:09:40;16.30;99.90
20712;DHT22;10517;50.742;4.224;2023-05-07T00:12:06;16.30;99.90
20712;DHT22;10517;50.742;4.224;2023-05-07T00:14:31;16.20;99.90
20712;DHT22;10517;50.742;4.224;2023-05-07T00:16:57;16.20;99.90
20712;DHT22;10517;50.742;4.224;2023-05-07T00:19:23;16.10;99.90
20712;DHT22;10517;50.742;4.224;2023-05-07T00:21:48;16.10;99.90
20712;DHT22;10517;50.742;4.224;2023-05-07T00:24:14;16.10;99.90
20712;DHT22;10517;50.742;4.224;2023-05-07T00:26:40;16.10;99.90
20712;DHT22;10517;50.742;4.224;2023-05-07T00:29:05;16.00;99.90
20712;DHT22;10517;50.742;4.224;2023-05-07T00:31:31;16.00;99.90
20712;DHT22;10517;50.742;4.224;2023-05-07T00:33:57;15.90;99.90
20712;DHT22;10517;50.742;4.224;2023-05-07T00:36:22;15.90;99.90
20712;DHT22;10517;50.742;4.224;2023-05-07T00:38:48;15.80;99.90
20712;DHT22;10517;50.742;4.224;2023-05-07T00:41:13;15.80;99.90
20712;DHT22;10517;50.742;4.224;2023-05-07T00:43:39;15.80;99.90
20712;DHT22;10517;50.742;4.224;2023-05-07T00:46:05;15.70;99.90
20712;DHT22;10517;50.742;4.224;2023-05-07T00:48:31;15.60;99.90
20712;DHT22;10517;50.742;4.224;2023-05-07T00:50:57;15.60;99.90
20712;DHT22;10517;50.742;4.224;2023-05-07T00:53:22;15.50;99.90
20712;DHT22;10517;50.742;4.224;2023-05-07T00:55:48;15.40;99.90
20712;DHT22;10517;50.742;4.224;2023-05-07T00:58:14;15.30;99.90
20712;DHT22;10517;50.742;4.224;2023-05-07T01:00:40;15.20;99.90
20712;DHT22;10517;50.742;4.224;2023-05-07T01:03:06;15.20;99.90
20712;DHT22;10517;50.742;4.224;2023-05-07T01:05:31;15.20;99.90
20712;DHT22;10517;50.742;4.224;2023-05-07T01:07:57;15.10;99.90
20712;DHT22;10517;50.742;4.224;2023-05-07T01:10:23;15.00;99.90
20712;DHT22;10517;50.742;4.224;2023-05-07T01:12:50;15.00;99.90
20712;DHT22;10517;50.742;4.224;2023-05-07T01:15:16;14.90;99.90
20712;DHT22;10517;50.742;4.224;2023-05-07T01:17:43;14.90;99.90
20712;DHT22;10517;50.742;4.224;2023-05-07T01:20:09;14.80;99.90
20712;DHT22;10517;50.742;4.224;2023-05-07T01:22:40;14.80;99.90
20712;DHT22;10517;50.742;4.224;2023-05-07T01:25:06;14.70;99.90
20712;DHT22;10517;50.742;4.224;2023-05-07T01:27:34;14.70;99.90
20712;DHT22;10517;50.742;4.224;2023-05-07T01:30:00;14.60;99.90
20712;DHT22;10517;50.742;4.224;2023-05-07T01:32:46;14.60;99.90
20712;DHT22;10517;50.742;4.224;2023-05-07T01:35:18;14.50;99.90
20712;DHT22;10517;50.742;4.224;2023-05-07T01:37:49;14.60;99.90
20712;DHT22;10517;50.742;4.224;2023-05-07T01:40:15;14.60;99.90
20712;DHT22;10517;50.742;4.224;2023-05-07T01:42:43;14.60;99.90
20712;DHT22;10517;50.742;4.224;2023-05-07T01:45:09;14.60;99.90
20712;DHT22;10517;50.742;4.224;2023-05-07T01:47:36;14.60;99.90
20712;DHT22;10517;50.742;4.224;2023-05-07T01:50:03;14.50;99.90
20712;DHT22;10517;50.742;4.224;2023-05-07T01:52:29;14.50;99.90
20712;DHT22;10517;50.742;4.224;2023-05-07T01:54:55;14.50;99.90
20712;DHT22;10517;50.742;4.224;2023-05-07T01:57:21;14.40;99.90
20712;DHT22;10517;50.742;4.224;2023-05-07T01:59:46;14.40;99.90
20712;DHT22;10517;50.742;4.224;2023-05-07T02:02:12;14.40;99.90
20712;DHT22;10517;50.742;4.224;2023-05-07T02:04:37;14.40;99.90
20712;DHT22;10517;50.742;4.224;2023-05-07T02:07:03;14.30;99.90
20712;DHT22;10517;50.742;4.224;2023-05-07T02:09:29;14.30;99.90
20712;DHT22;10517;50.742;4.224;2023-05-07T02:11:55;14.30;99.90
20712;DHT22;10517;50.742;4.224;2023-05-07T02:14:21;14.30;99.90
20712;DHT22;10517;50.742;4.224;2023-05-07T02:16:46;14.30;99.90
20712;DHT22;10517;50.742;4.224;2023-05-07T02:19:12;14.30;99.90
20712;DHT22;10517;50.742;4.224;2023-05-07T02:21:38;14.30;99.90
20712;DHT22;10517;50.742;4.224;2023-05-07T02:24:03;14.40;99.90
20712;DHT22;10517;50.742;4.224;2023-05-07T02:26:29;14.40;99.90
20712;DHT22;10517;50.742;4.224;2023-05-07T02:28:55;14.40;99.90
20712;DHT22;10517;50.742;4.224;2023-05-07T02:31:20;14.40;99.90
20712;DHT22;10517;50.742;4.224;2023-05-07T02:33:46;14.50;99.90
20712;DHT22;10517;50.742;4.224;2023-05-07T02:36:12;14.40;99.90
20712;DHT22;10517;50.742;4.224;2023-05-07T02:38:38;14.40;99.90
20712;DHT22;10517;50.742;4.224;2023-05-07T02:41:04;14.50;99.90
20712;DHT22;10517;50.742;4.224;2023-05-07T02:43:30;14.50;99.90
20712;DHT22;10517;50.742;4.224;2023-05-07T02:46:05;14.50;99.90
20712;DHT22;10517;50.742;4.224;2023-05-07T02:48:31;14.50;99.90
20712;DHT22;10517;50.742;4.224;2023-05-07T02:50:58;14.50;99.90
20712;DHT22;10517;50.742;4.224;2023-05-07T02:53:24;14.50;99.90
20712;DHT22;10517;50.742;4.224;2023-05-07T02:55:56;14.50;99.90
20712;DHT22;10517;50.742;4.224;2023-05-07T02:58:22;14.50;99.90
20712;DHT22;10517;50.742;4.224;2023-05-07T03:00:47;14.50;99.90
20712;DHT22;10517;50.742;4.224;2023-05-07T03:03:14;14.50;99.90
20712;DHT22;10517;50.742;4.224;2023-05-07T03:05:40;14.50;99.90
20712;DHT22;10517;50.742;4.224;2023-05-07T03:08:06;14.60;99.90
20712;DHT22;10517;50.742;4.224;2023-05-07T03:10:32;14.70;99.90
20712;DHT22;10517;50.742;4.224;2023-05-07T03:12:57;14.70;99.90
20712;DHT22;10517;50.742;4.224;2023-05-07T03:15:23;14.70;99.90
20712;DHT22;10517;50.742;4.224;2023-05-07T03:17:49;14.70;99.90
20712;DHT22;10517;50.742;4.224;2023-05-07T03:20:14;14.80;99.90
20712;DHT22;10517;50.742;4.224;2023-05-07T03:22:40;14.80;99.90
20712;DHT22;10517;50.742;4.224;2023-05-07T03:25:06;14.90;99.90
20712;DHT22;10517;50.742;4.224;2023-05-07T03:27:32;14.90;99.90
20712;DHT22;10517;50.742;4.224;2023-05-07T03:29:58;14.90;99.90
20712;DHT22;10517;50.742;4.224;2023-05-07T03:32:24;14.90;99.90
20712;DHT22;10517;50.742;4.224;2023-05-07T03:34:49;14.90;99.90
20712;DHT22;10517;50.742;4.224;2023-05-07T03:37:15;15.00;99.90
20712;DHT22;10517;50.742;4.224;2023-05-07T03:39:41;15.00;99.90
20712;DHT22;10517;50.742;4.224;2023-05-07T03:42:06;15.00;99.90
20712;DHT22;10517;50.742;4.224;2023-05-07T03:44:32;15.00;99.90
20712;DHT22;10517;50.742;4.224;2023-05-07T03:46:58;15.00;99.90
20712;DHT22;10517;50.742;4.224;2023-05-07T03:49:23;15.00;99.90
20712;DHT22;10517;50.742;4.224;2023-05-07T03:51:49;15.00;99.90
20712;DHT22;10517;50.742;4.224;2023-05-07T03:54:14;15.00;99.90
20712;DHT22;10517;50.742;4.224;2023-05-07T03:56:40;15.00;99.90
20712;DHT22;10517;50.742;4.224;2023-05-07T03:59:06;15.10;99.90
20712;DHT22;10517;50.742;4.224;2023-05-07T04:01:31;15.10;99.90
20712;DHT22;10517;50.742;4.224;2023-05-07T04:03:57;15.20;99.90
20712;DHT22;10517;50.742;4.224;2023-05-07T04:06:22;15.10;99.90
20712;DHT22;10517;50.742;4.224;2023-05-07T04:08:48;15.10;99.90
20712;DHT22;10517;50.742;4.224;2023-05-07T04:11:14;15.00;99.90
20712;DHT22;10517;50.742;4.224;2023-05-07T04:13:39;15.00;99.90
20712;DHT22;10517;50.742;4.224;2023-05-07T04:16:05;15.00;99.90
20712;DHT22;10517;50.742;4.224;2023-05-07T04:18:31;15.00;99.90
20712;DHT22;10517;50.742;4.224;2023-05-07T04:20:57;15.00;99.90
20712;DHT22;10517;50.742;4.224;2023-05-07T04:23:22;15.00;99.90
20712;DHT22;10517;50.742;4.224;2023-05-07T04:25:48;15.00;99.90
20712;DHT22;10517;50.742;4.224;2023-05-07T04:28:14;15.00;99.90
20712;DHT22;10517;50.742;4.224;2023-05-07T04:30:39;15.10;99.90
20712;DHT22;10517;50.742;4.224;2023-05-07T04:33:06;15.10;99.90
20712;DHT22;10517;50.742;4.224;2023-05-07T04:35:32;15.10;99.90
20712;DHT22;10517;50.742;4.224;2023-05-07T04:37:58;15.10;99.90
20712;DHT22;10517;50.742;4.224;2023-05-07T04:40:24;15.10;99.90
20712;DHT22;10517;50.742;4.224;2023-05-07T04:42:50;15.10;99.90
20712;DHT22;10517;50.742;4.224;2023-05-07T04:45:15;15.10;99.90
20712;DHT22;10517;50.742;4.224;2023-05-07T04:47:41;15.10;99.90
20712;DHT22;10517;50.742;4.224;2023-05-07T04:50:07;15.20;99.90
20712;DHT22;10517;50.742;4.224;2023-05-07T04:52:34;15.20;99.90
20712;DHT22;10517;50.742;4.224;2023-05-07T04:55:00;15.20;99.90
20712;DHT22;10517;50.742;4.224;2023-05-07T04:57:26;15.30;99.90
20712;DHT22;10517;50.742;4.224;2023-05-07T04:59:53;15.40;99.90
20712;DHT22;10517;50.742;4.224;2023-05-07T05:02:18;15.40;99.90
20712;DHT22;10517;50.742;4.224;2023-05-07T05:04:44;15.50;99.90
20712;DHT22;10517;50.742;4.224;2023-05-07T05:07:09;15.60;99.90
20712;DHT22;10517;50.742;4.224;2023-05-07T05:09:35;15.70;99.90
20712;DHT22;10517;50.742;4.224;2023-05-07T05:12:01;15.70;99.90
20712;DHT22;10517;50.742;4.224;2023-05-07T05:14:26;15.80;99.90
20712;DHT22;10517;50.742;4.224;2023-05-07T05:16:52;15.90;99.90
20712;DHT22;10517;50.742;4.224;2023-05-07T05:19:18;15.90;99.90
20712;DHT22;10517;50.742;4.224;2023-05-07T05:21:43;16.00;99.90
20712;DHT22;10517;50.742;4.224;2023-05-07T05:24:09;15.90;99.90
20712;DHT22;10517;50.742;4.224;2023-05-07T05:26:34;15.90;99.90
20712;DHT22;10517;50.742;4.224;2023-05-07T05:29:00;16.00;99.90
20712;DHT22;10517;50.742;4.224;2023-05-07T05:31:26;16.10;99.90
20712;DHT22;10517;50.742;4.224;2023-05-07T05:33:51;15.80;99.90
20712;DHT22;10517;50.742;4.224;2023-05-07T05:36:17;15.80;99.90
20712;DHT22;10517;50.742;4.224;2023-05-07T05:38:43;15.80;99.90
20712;DHT22;10517;50.742;4.224;2023-05-07T05:41:10;15.80;99.90
20712;DHT22;10517;50.742;4.224;2023-05-07T05:43:35;15.80;99.90
20712;DHT22;10517;50.742;4.224;2023-05-07T05:46:01;15.80;99.90
20712;DHT22;10517;50.742;4.224;2023-05-07T05:48:29;15.90;99.90
20712;DHT22;10517;50.742;4.224;2023-05-07T05:50:54;15.80;99.90
20712;DHT22;10517;50.742;4.224;2023-05-07T05:53:20;15.90;99.90
20712;DHT22;10517;50.742;4.224;2023-05-07T05:55:45;16.00;99.90
20712;DHT22;10517;50.742;4.224;2023-05-07T05:58:11;15.90;99.90
20712;DHT22;10517;50.742;4.224;2023-05-07T06:00:37;15.90;99.90
20712;DHT22;10517;50.742;4.224;2023-05-07T06:03:03;15.80;99.90
20712;DHT22;10517;50.742;4.224;2023-05-07T06:05:29;15.80;99.90
20712;DHT22;10517;50.742;4.224;2023-05-07T06:07:54;15.60;99.90
20712;DHT22;10517;50.742;4.224;2023-05-07T06:10:20;15.60;99.90
20712;DHT22;10517;50.742;4.224;2023-05-07T06:12:45;15.60;99.90
20712;DHT22;10517;50.742;4.224;2023-05-07T06:15:11;15.50;99.90
20712;DHT22;10517;50.742;4.224;2023-05-07T06:17:37;15.50;99.90
20712;DHT22;10517;50.742;4.224;2023-05-07T06:20:03;15.50;99.90
20712;DHT22;10517;50.742;4.224;2023-05-07T06:22:28;15.60;99.90
20712;DHT22;10517;50.742;4.224;2023-05-07T06:24:54;15.50;99.90
20712;DHT22;10517;50.742;4.224;2023-05-07T06:27:20;15.50;99.90
20712;DHT22;10517;50.742;4.224;2023-05-07T06:29:47;15.60;99.90
20712;DHT22;10517;50.742;4.224;2023-05-07T06:32:13;15.70;99.90
20712;DHT22;10517;50.742;4.224;2023-05-07T06:34:40;15.70;99.90
20712;DHT22;10517;50.742;4.224;2023-05-07T06:37:06;15.80;99.90
20712;DHT22;10517;50.742;4.224;2023-05-07T06:39:32;15.90;99.90
20712;DHT22;10517;50.742;4.224;2023-05-07T06:42:00;15.90;99.90
20712;DHT22;10517;50.742;4.224;2023-05-07T06:44:25;16.00;99.90
20712;DHT22;10517;50.742;4.224;2023-05-07T06:46:51;16.10;99.90
20712;DHT22;10517;50.742;4.224;2023-05-07T06:49:17;16.20;99.90
20712;DHT22;10517;50.742;4.224;2023-05-07T06:51:42;16.30;99.90
20712;DHT22;10517;50.742;4.224;2023-05-07T06:54:08;16.30;99.90
20712;DHT22;10517;50.742;4.224;2023-05-07T06:56:34;16.40;99.90
20712;DHT22;10517;50.742;4.224;2023-05-07T06:59:01;16.40;99.90
20712;DHT22;10517;50.742;4.224;2023-05-07T07:01:28;16.50;99.90
20712;DHT22;10517;50.742;4.224;2023-05-07T07:03:53;16.50;99.90
20712;DHT22;10517;50.742;4.224;2023-05-07T07:06:19;16.50;99.90
20712;DHT22;10517;50.742;4.224;2023-05-07T07:08:45;16.50;99.90
20712;DHT22;10517;50.742;4.224;2023-05-07T07:11:11;16.50;99.90
20712;DHT22;10517;50.742;4.224;2023-05-07T07:13:37;16.50;99.90
20712;DHT22;10517;50.742;4.224;2023-05-07T07:16:02;16.60;99.90
20712;DHT22;10517;50.742;4.224;2023-05-07T07:18:28;16.50;99.90
20712;DHT22;10517;50.742;4.224;2023-05-07T07:20:54;16.50;99.90
20712;DHT22;10517;50.742;4.224;2023-05-07T07:23:20;16.60;99.90
20712;DHT22;10517;50.742;4.224;2023-05-07T07:25:45;16.60;99.90
20712;DHT22;10517;50.742;4.224;2023-05-07T07:28:11;16.60;99.90
20712;DHT22;10517;50.742;4.224;2023-05-07T07:30:37;16.60;99.90
20712;DHT22;10517;50.742;4.224;2023-05-07T07:33:03;16.70;99.90
20712;DHT22;10517;50.742;4.224;2023-05-07T07:35:29;16.70;99.90
20712;DHT22;10517;50.742;4.224;2023-05-07T07:37:55;16.70;99.90
20712;DHT22;10517;50.742;4.224;2023-05-07T07:40:21;16.80;99.90
20712;DHT22;10517;50.742;4.224;2023-05-07T07:42:47;16.80;99.90
20712;DHT22;10517;50.742;4.224;2023-05-07T07:45:12;16.70;99.90
20712;DHT22;10517;50.742;4.224;2023-05-07T07:47:39;16.80;99.90
20712;DHT22;10517;50.742;4.224;2023-05-07T07:50:06;16.90;99.90
20712;DHT22;10517;50.742;4.224;2023-05-07T07:52:32;16.90;99.90
20712;DHT22;10517;50.742;4.224;2023-05-07T07:54:58;17.00;99.90
20712;DHT22;10517;50.742;4.224;2023-05-07T07:57:23;17.00;99.90
20712;DHT22;10517;50.742;4.224;2023-05-07T07:59:49;17.00;99.90
20712;DHT22;10517;50.742;4.224;2023-05-07T08:02:15;17.00;99.90
20712;DHT22;10517;50.742;4.224;2023-05-07T08:04:41;17.00;99.90
20712;DHT22;10517;50.742;4.224;2023-05-07T08:07:12;17.00;99.90
20712;DHT22;10517;50.742;4.224;2023-05-07T08:09:38;17.10;99.90
20712;DHT22;10517;50.742;4.224;2023-05-07T08:12:05;17.10;99.90
20712;DHT22;10517;50.742;4.224;2023-05-07T08:14:30;17.10;99.90
20712;DHT22;10517;50.742;4.224;2023-05-07T08:16:56;17.00;99.90
20712;DHT22;10517;50.742;4.224;2023-05-07T08:19:22;17.00;99.90
20712;DHT22;10517;50.742;4.224;2023-05-07T08:21:48;17.00;99.90
20712;DHT22;10517;50.742;4.224;2023-05-07T08:24:16;17.00;99.90
20712;DHT22;10517;50.742;4.224;2023-05-07T08:26:43;16.90;99.90
20712;DHT22;10517;50.742;4.224;2023-05-07T08:29:09;16.90;99.90
20712;DHT22;10517;50.742;4.224;2023-05-07T08:31:35;17.10;99.90
20712;DHT22;10517;50.742;4.224;2023-05-07T08:34:01;17.20;99.90
20712;DHT22;10517;50.742;4.224;2023-05-07T08:36:26;17.20;99.90
20712;DHT22;10517;50.742;4.224;2023-05-07T08:38:53;17.20;99.90
20712;DHT22;10517;50.742;4.224;2023-05-07T08:41:18;17.20;99.90
20712;DHT22;10517;50.742;4.224;2023-05-07T08:43:49;17.20;99.90
20712;DHT22;10517;50.742;4.224;2023-05-07T08:46:21;17.30;99.90
20712;DHT22;10517;50.742;4.224;2023-05-07T08:48:50;17.50;99.90
20712;DHT22;10517;50.742;4.224;2023-05-07T08:51:18;17.60;99.90
20712;DHT22;10517;50.742;4.224;2023-05-07T08:53:46;17.70;99.90
20712;DHT22;10517;50.742;4.224;2023-05-07T08:56:14;17.80;99.90
20712;DHT22;10517;50.742;4.224;2023-05-07T08:58:41;17.90;99.90
20712;DHT22;10517;50.742;4.224;2023-05-07T09:01:14;17.90;99.90
20712;DHT22;10517;50.742;4.224;2023-05-07T09:03:43;17.90;99.90
20712;DHT22;10517;50.742;4.224;2023-05-07T09:06:09;18.00;99.90
20712;DHT22;10517;50.742;4.224;2023-05-07T09:08:36;18.10;99.90
20712;DHT22;10517;50.742;4.224;2023-05-07T09:11:02;18.20;99.90
20712;DHT22;10517;50.742;4.224;2023-05-07T09:13:28;18.20;99.90
20712;DHT22;10517;50.742;4.224;2023-05-07T09:15:55;18.30;99.90
20712;DHT22;10517;50.742;4.224;2023-05-07T09:18:20;18.20;99.90
20712;DHT22;10517;50.742;4.224;2023-05-07T09:20:46;18.30;99.90
20712;DHT22;10517;50.742;4.224;2023-05-07T09:23:12;18.40;99.90
20712;DHT22;10517;50.742;4.224;2023-05-07T09:25:37;18.40;99.90
20712;DHT22;10517;50.742;4.224;2023-05-07T09:28:04;18.40;99.90
20712;DHT22;10517;50.742;4.224;2023-05-07T09:30:33;18.40;99.90
20712;DHT22;10517;50.742;4.224;2023-05-07T09:33:00;18.40;99.90
20712;DHT22;10517;50.742;4.224;2023-05-07T09:35:26;18.40;99.90
20712;DHT22;10517;50.742;4.224;2023-05-07T09:37:56;18.30;99.90
20712;DHT22;10517;50.742;4.224;2023-05-07T09:40:24;18.30;99.90
20712;DHT22;10517;50.742;4.224;2023-05-07T09:42:50;18.30;99.90
20712;DHT22;10517;50.742;4.224;2023-05-07T09:45:21;18.20;99.90
20712;DHT22;10517;50.742;4.224;2023-05-07T09:47:48;18.20;99.90
20712;DHT22;10517;50.742;4.224;2023-05-07T09:50:16;18.20;99.90
20712;DHT22;10517;50.742;4.224;2023-05-07T09:52:42;18.20;99.90
20712;DHT22;10517;50.742;4.224;2023-05-07T09:55:09;18.20;99.90
20712;DHT22;10517;50.742;4.224;2023-05-07T09:57:36;18.20;99.90
20712;DHT22;10517;50.742;4.224;2023-05-07T10:00:03;18.30;99.90
20712;DHT22;10517;50.742;4.224;2023-05-07T10:02:35;18.20;99.90
20712;DHT22;10517;50.742;4.224;2023-05-07T10:05:02;18.30;99.90
20712;DHT22;10517;50.742;4.224;2023-05-07T10:07:29;18.30;99.90
20712;DHT22;10517;50.742;4.224;2023-05-07T10:09:55;18.40;99.90
20712;DHT22;10517;50.742;4.224;2023-05-07T10:12:21;18.50;99.90
20712;DHT22;10517;50.742;4.224;2023-05-07T10:14:47;18.50;99.90
20712;DHT22;10517;50.742;4.224;2023-05-07T10:17:16;18.50;99.90
20712;DHT22;10517;50.742;4.224;2023-05-07T10:19:44;18.50;99.90
20712;DHT22;10517;50.742;4.224;2023-05-07T10:22:10;18.60;99.90
20712;DHT22;10517;50.742;4.224;2023-05-07T10:24:36;18.70;99.90
20712;DHT22;10517;50.742;4.224;2023-05-07T10:27:07;18.70;99.90
20712;DHT22;10517;50.742;4.224;2023-05-07T10:32:39;18.70;99.90
20712;DHT22;10517;50.742;4.224;2023-05-07T10:35:10;18.90;99.90
20712;DHT22;10517;50.742;4.224;2023-05-07T10:37:37;18.90;99.90
20712;DHT22;10517;50.742;4.224;2023-05-07T10:40:04;18.90;99.90
20712;DHT22;10517;50.742;4.224;2023-05-07T10:42:29;19.00;99.90
20712;DHT22;10517;50.742;4.224;2023-05-07T10:44:55;19.10;99.90
20712;DHT22;10517;50.742;4.224;2023-05-07T10:47:21;19.10;99.90
20712;DHT22;10517;50.742;4.224;2023-05-07T10:52:13;19.00;99.90
20712;DHT22;10517;50.742;4.224;2023-05-07T10:54:40;19.10;99.90
20712;DHT22;10517;50.742;4.224;2023-05-07T10:59:56;19.20;99.90
20712;DHT22;10517;50.742;4.224;2023-05-07T11:02:21;19.20;99.90
20712;DHT22;10517;50.742;4.224;2023-05-07T11:05:22;19.20;99.90
20712;DHT22;10517;50.742;4.224;2023-05-07T11:07:55;19.20;99.90
20712;DHT22;10517;50.742;4.224;2023-05-07T11:10:22;19.20;99.90
20712;DHT22;10517;50.742;4.224;2023-05-07T11:12:51;19.20;99.90
20712;DHT22;10517;50.742;4.224;2023-05-07T11:17:59;19.30;99.90
20712;DHT22;10517;50.742;4.224;2023-05-07T11:26:10;19.60;99.90
20712;DHT22;10517;50.742;4.224;2023-05-07T11:28:42;19.80;99.90
20712;DHT22;10517;50.742;4.224;2023-05-07T11:31:09;20.00;99.90
20712;DHT22;10517;50.742;4.224;2023-05-07T11:33:36;20.20;99.90
20712;DHT22;10517;50.742;4.224;2023-05-07T11:36:04;20.30;99.90
20712;DHT22;10517;50.742;4.224;2023-05-07T11:38:30;20.50;99.90
20712;DHT22;10517;50.742;4.224;2023-05-07T11:40:57;20.40;99.90
20712;DHT22;10517;50.742;4.224;2023-05-07T11:43:24;20.50;99.90
20712;DHT22;10517;50.742;4.224;2023-05-07T11:45:50;20.50;99.90
20712;DHT22;10517;50.742;4.224;2023-05-07T11:48:16;20.50;99.90
20712;DHT22;10517;50.742;4.224;2023-05-07T11:51:01;20.60;99.90
20712;DHT22;10517;50.742;4.224;2023-05-07T11:53:28;20.50;99.90
20712;DHT22;10517;50.742;4.224;2023-05-07T11:56:00;20.80;99.90
20712;DHT22;10517;50.742;4.224;2023-05-07T11:58:25;20.90;99.90
20712;DHT22;10517;50.742;4.224;2023-05-07T12:00:52;21.00;99.90
20712;DHT22;10517;50.742;4.224;2023-05-07T12:03:18;21.00;99.90
20712;DHT22;10517;50.742;4.224;2023-05-07T12:05:45;21.00;99.90
20712;DHT22;10517;50.742;4.224;2023-05-07T12:08:14;21.10;99.90
20712;DHT22;10517;50.742;4.224;2023-05-07T12:10:42;21.10;99.90
20712;DHT22;10517;50.742;4.224;2023-05-07T12:13:18;21.10;99.90
20712;DHT22;10517;50.742;4.224;2023-05-07T12:15:43;20.90;99.90
20712;DHT22;10517;50.742;4.224;2023-05-07T12:18:10;20.80;99.90
20712;DHT22;10517;50.742;4.224;2023-05-07T12:20:37;20.80;99.90
20712;DHT22;10517;50.742;4.224;2023-05-07T12:23:03;20.90;99.90
20712;DHT22;10517;50.742;4.224;2023-05-07T12:25:34;21.10;99.90
20712;DHT22;10517;50.742;4.224;2023-05-07T12:28:01;21.30;99.90
20712;DHT22;10517;50.742;4.224;2023-05-07T12:30:26;21.50;99.90
20712;DHT22;10517;50.742;4.224;2023-05-07T12:32:53;21.70;99.90
20712;DHT22;10517;50.742;4.224;2023-05-07T12:35:29;21.70;99.90
20712;DHT22;10517;50.742;4.224;2023-05-07T12:37:59;21.70;99.90
20712;DHT22;10517;50.742;4.224;2023-05-07T12:40:45;21.90;99.90
20712;DHT22;10517;50.742;4.224;2023-05-07T12:43:23;22.00;99.90
20712;DHT22;10517;50.742;4.224;2023-05-07T12:45:50;22.10;99.90
20712;DHT22;10517;50.742;4.224;2023-05-07T12:48:16;22.10;99.90
20712;DHT22;10517;50.742;4.224;2023-05-07T12:50:42;22.20;99.90
20712;DHT22;10517;50.742;4.224;2023-05-07T12:53:10;22.30;99.90
20712;DHT22;10517;50.742;4.224;2023-05-07T12:55:44;22.30;99.90
20712;DHT22;10517;50.742;4.224;2023-05-07T12:58:20;22.10;99.90
20712;DHT22;10517;50.742;4.224;2023-05-07T13:00:48;22.10;99.90
20712;DHT22;10517;50.742;4.224;2023-05-07T13:03:22;21.90;99.90
20712;DHT22;10517;50.742;4.224;2023-05-07T13:05:49;22.00;99.90
20712;DHT22;10517;50.742;4.224;2023-05-07T13:08:29;21.90;99.90
20712;DHT22;10517;50.742;4.224;2023-05-07T13:10:57;22.00;99.90
20712;DHT22;10517;50.742;4.224;2023-05-07T13:13:23;21.90;99.90
20712;DHT22;10517;50.742;4.224;2023-05-07T13:15:48;21.80;99.90
20712;DHT22;10517;50.742;4.224;2023-05-07T13:18:14;21.60;99.90
20712;DHT22;10517;50.742;4.224;2023-05-07T13:20:40;21.60;99.90
20712;DHT22;10517;50.742;4.224;2023-05-07T13:23:06;21.60;99.90
20712;DHT22;10517;50.742;4.224;2023-05-07T13:25:31;21.40;99.90
20712;DHT22;10517;50.742;4.224;2023-05-07T13:27:57;21.30;99.90
20712;DHT22;10517;50.742;4.224;2023-05-07T13:30:23;21.40;99.90
20712;DHT22;10517;50.742;4.224;2023-05-07T13:32:49;21.30;99.90
20712;DHT22;10517;50.742;4.224;2023-05-07T13:35:16;21.30;99.90
20712;DHT22;10517;50.742;4.224;2023-05-07T13:37:41;21.30;99.90
20712;DHT22;10517;50.742;4.224;2023-05-07T13:40:08;21.40;99.90
20712;DHT22;10517;50.742;4.224;2023-05-07T13:42:33;21.40;99.90
20712;DHT22;10517;50.742;4.224;2023-05-07T13:44:59;21.50;99.90
20712;DHT22;10517;50.742;4.224;2023-05-07T13:47:24;21.60;99.90
20712;DHT22;10517;50.742;4.224;2023-05-07T13:49:50;21.70;99.90
20712;DHT22;10517;50.742;4.224;2023-05-07T13:52:16;21.80;99.90
20712;DHT22;10517;50.742;4.224;2023-05-07T13:54:42;21.80;99.90
20712;DHT22;10517;50.742;4.224;2023-05-07T13:57:08;21.80;99.90
20712;DHT22;10517;50.742;4.224;2023-05-07T13:59:34;21.70;99.90
20712;DHT22;10517;50.742;4.224;2023-05-07T14:01:59;21.50;99.90
20712;DHT22;10517;50.742;4.224;2023-05-07T14:04:25;21.50;99.90
20712;DHT22;10517;50.742;4.224;2023-05-07T14:06:51;21.60;99.90
20712;DHT22;10517;50.742;4.224;2023-05-07T14:09:17;21.60;99.90
20712;DHT22;10517;50.742;4.224;2023-05-07T14:11:42;21.20;99.90
20712;DHT22;10517;50.742;4.224;2023-05-07T14:14:08;21.20;99.90
20712;DHT22;10517;50.742;4.224;2023-05-07T14:16:36;21.10;99.90
20712;DHT22;10517;50.742;4.224;2023-05-07T14:19:02;21.10;99.90
20712;DHT22;10517;50.742;4.224;2023-05-07T14:21:28;21.10;99.90
20712;DHT22;10517;50.742;4.224;2023-05-07T14:23:53;21.10;99.90
20712;DHT22;10517;50.742;4.224;2023-05-07T14:26:20;21.20;99.90
20712;DHT22;10517;50.742;4.224;2023-05-07T14:28:46;21.20;99.90
20712;DHT22;10517;50.742;4.224;2023-05-07T14:31:12;21.20;99.90
20712;DHT22;10517;50.742;4.224;2023-05-07T14:33:38;21.20;99.90
20712;DHT22;10517;50.742;4.224;2023-05-07T14:36:03;21.20;99.90
20712;DHT22;10517;50.742;4.224;2023-05-07T14:38:30;21.20;99.90
20712;DHT22;10517;50.742;4.224;2023-05-07T14:40:58;21.20;99.90
20712;DHT22;10517;50.742;4.224;2023-05-07T14:43:24;21.30;99.90
20712;DHT22;10517;50.742;4.224;2023-05-07T14:45:49;21.30;99.90
20712;DHT22;10517;50.742;4.224;2023-05-07T14:48:15;21.30;99.90
20712;DHT22;10517;50.742;4.224;2023-05-07T14:50:41;21.20;99.90
20712;DHT22;10517;50.742;4.224;2023-05-07T14:53:07;21.20;99.90
20712;DHT22;10517;50.742;4.224;2023-05-07T14:55:34;21.20;99.90
20712;DHT22;10517;50.742;4.224;2023-05-07T14:58:00;21.00;99.90
20712;DHT22;10517;50.742;4.224;2023-05-07T15:00:25;20.90;99.90
20712;DHT22;10517;50.742;4.224;2023-05-07T15:02:51;20.60;99.90
20712;DHT22;10517;50.742;4.224;2023-05-07T15:05:17;20.60;99.90
20712;DHT22;10517;50.742;4.224;2023-05-07T15:07:44;20.40;99.90
20712;DHT22;10517;50.742;4.224;2023-05-07T15:10:10;20.30;99.90
20712;DHT22;10517;50.742;4.224;2023-05-07T15:12:36;20.30;99.90
20712;DHT22;10517;50.742;4.224;2023-05-07T15:15:02;20.20;99.90
20712;DHT22;10517;50.742;4.224;2023-05-07T15:17:27;20.10;99.90
20712;DHT22;10517;50.742;4.224;2023-05-07T15:19:53;20.10;99.90
20712;DHT22;10517;50.742;4.224;2023-05-07T15:22:19;20.00;99.90
20712;DHT22;10517;50.742;4.224;2023-05-07T15:24:46;20.00;99.90
20712;DHT22;10517;50.742;4.224;2023-05-07T15:27:12;20.00;99.90
20712;DHT22;10517;50.742;4.224;2023-05-07T15:29:37;20.00;99.90
20712;DHT22;10517;50.742;4.224;2023-05-07T15:32:03;20.10;99.90
20712;DHT22;10517;50.742;4.224;2023-05-07T15:34:29;20.20;99.90
20712;DHT22;10517;50.742;4.224;2023-05-07T15:36:56;20.30;99.90
20712;DHT22;10517;50.742;4.224;2023-05-07T15:39:22;20.20;99.90
20712;DHT22;10517;50.742;4.224;2023-05-07T15:41:48;20.20;99.90
20712;DHT22;10517;50.742;4.224;2023-05-07T15:44:14;20.30;99.90